sensor_id;sensor_type;location;lat;lon;timestamp;pressure;altitude;pressure_sealevel;temperature;humidity
6514;BME280;3290;47.716;9.070;2023-03-19T00:01:53;96637.78;;;13.04;70.96
6514;BME280;3290;47.716;9.070;2023-03-19T00:04:18;96646.78;;;13.08;70.95
6514;BME280;3290;47.716;9.070;2023-03-19T00:06:44;96649.34;;;13.19;70.38
6514;BME280;3290;47.716;9.070;2023-03-19T00:09:09;96653.03;;;13.18;70.81
6514;BME280;3290;47.716;9.070;2023-03-19T00:11:35;96658.81;;;13.04;71.09
6514;BME280;3290;47.716;9.070;2023-03-19T00:14:00;96653.94;;;12.96;72.48
6514;BME280;3290;47.716;9.070;2023-03-19T00:16:26;96667.63;;;12.98;72.16
6514;BME280;3290;47.716;9.070;2023-03-19T00:18:51;96654.84;;;13.18;70.49
6514;BME280;3290;47.716;9.070;2023-03-19T00:21:17;96660.19;;;13.22;70.97
6514;BME280;3290;47.716;9.070;2023-03-19T00:23:43;96664.03;;;13.31;71.39
6514;BME280;3290;47.716;9.070;2023-03-19T00:26:08;96668.06;;;13.50;70.50
6514;BME280;3290;47.716;9.070;2023-03-19T00:28:34;96667.59;;;13.53;69.92
6514;BME280;3290;47.716;9.070;2023-03-19T00:31:15;96668.06;;;13.66;68.69
6514;BME280;3290;47.716;9.070;2023-03-19T00:33:41;96670.44;;;13.68;68.93
6514;BME280;3290;47.716;9.070;2023-03-19T00:36:08;96666.31;;;13.56;69.63
6514;BME280;3290;47.716;9.070;2023-03-19T00:38:35;96675.41;;;13.48;70.93
6514;BME280;3290;47.716;9.070;2023-03-19T00:41:01;96672.34;;;13.56;70.83
6514;BME280;3290;47.716;9.070;2023-03-19T00:43:26;96679.59;;;13.33;72.25
6514;BME280;3290;47.716;9.070;2023-03-19T00:45:52;96683.03;;;13.33;72.43
6514;BME280;3290;47.716;9.070;2023-03-19T00:48:17;96680.09;;;13.46;72.09
6514;BME280;3290;47.716;9.070;2023-03-19T00:50:43;96688.31;;;13.50;73.65
6514;BME280;3290;47.716;9.070;2023-03-19T00:53:08;96688.38;;;13.38;76.03
6514;BME280;3290;47.716;9.070;2023-03-19T00:55:34;96691.56;;;13.40;74.89
6514;BME280;3290;47.716;9.070;2023-03-19T00:58:00;96692.22;;;13.47;77.98
6514;BME280;3290;47.716;9.070;2023-03-19T01:00:25;96694.63;;;13.21;81.78
6514;BME280;3290;47.716;9.070;2023-03-19T01:02:51;96689.44;;;13.54;76.62
6514;BME280;3290;47.716;9.070;2023-03-19T01:05:17;96697.66;;;13.73;72.54
6514;BME280;3290;47.716;9.070;2023-03-19T01:07:42;96698.84;;;13.66;73.66
6514;BME280;3290;47.716;9.070;2023-03-19T01:10:08;96706.34;;;13.58;79.76
6514;BME280;3290;47.716;9.070;2023-03-19T01:12:34;96704.16;;;13.38;81.03
6514;BME280;3290;47.716;9.070;2023-03-19T01:15:00;96704.00;;;13.01;81.99
6514;BME280;3290;47.716;9.070;2023-03-19T01:17:25;96705.19;;;12.82;85.13
6514;BME280;3290;47.716;9.070;2023-03-19T01:19:51;96713.09;;;12.71;84.89
6514;BME280;3290;47.716;9.070;2023-03-19T01:22:16;96712.28;;;12.70;84.56
6514;BME280;3290;47.716;9.070;2023-03-19T01:24:42;96717.34;;;12.60;85.47
6514;BME280;3290;47.716;9.070;2023-03-19T01:27:08;96714.81;;;12.54;86.64
6514;BME280;3290;47.716;9.070;2023-03-19T01:29:33;96717.81;;;12.46;87.37
6514;BME280;3290;47.716;9.070;2023-03-19T01:31:59;96714.88;;;12.42;87.49
6514;BME280;3290;47.716;9.070;2023-03-19T01:34:25;96719.97;;;12.49;88.86
6514;BME280;3290;47.716;9.070;2023-03-19T01:36:50;96716.31;;;12.38;90.45
6514;BME280;3290;47.716;9.070;2023-03-19T01:39:16;96726.41;;;12.30;89.23
6514;BME280;3290;47.716;9.070;2023-03-19T01:41:42;96730.38;;;12.55;89.21
6514;BME280;3290;47.716;9.070;2023-03-19T01:44:28;96724.88;;;12.57;86.88
6514;BME280;3290;47.716;9.070;2023-03-19T01:46:56;96726.47;;;12.69;86.99
6514;BME280;3290;47.716;9.070;2023-03-19T01:49:23;96731.94;;;12.68;88.87
6514;BME280;3290;47.716;9.070;2023-03-19T01:51:50;96735.09;;;12.31;90.33
6514;BME280;3290;47.716;9.070;2023-03-19T01:54:20;96739.78;;;12.29;92.93
6514;BME280;3290;47.716;9.070;2023-03-19T01:56:48;96732.66;;;12.52;91.73
6514;BME280;3290;47.716;9.070;2023-03-19T01:59:34;96735.16;;;12.47;90.92
6514;BME280;3290;47.716;9.070;2023-03-19T02:04:33;96735.28;;;12.52;92.19
6514;BME280;3290;47.716;9.070;2023-03-19T02:07:01;96737.34;;;12.38;95.13
6514;BME280;3290;47.716;9.070;2023-03-19T02:09:28;96734.50;;;12.51;92.38
6514;BME280;3290;47.716;9.070;2023-03-19T02:11:54;96742.16;;;12.30;91.24
6514;BME280;3290;47.716;9.070;2023-03-19T02:14:20;96745.91;;;12.23;90.56
6514;BME280;3290;47.716;9.070;2023-03-19T02:16:46;96744.53;;;12.32;90.68
6514;BME280;3290;47.716;9.070;2023-03-19T02:19:17;96746.47;;;12.59;90.85
6514;BME280;3290;47.716;9.070;2023-03-19T02:21:46;96748.16;;;12.76;88.34
6514;BME280;3290;47.716;9.070;2023-03-19T02:24:16;96742.91;;;12.76;87.59
6514;BME280;3290;47.716;9.070;2023-03-19T02:26:44;96742.91;;;12.76;89.25
6514;BME280;3290;47.716;9.070;2023-03-19T02:29:10;96743.13;;;12.86;88.87
6514;BME280;3290;47.716;9.070;2023-03-19T02:31:36;96743.50;;;12.44;93.33
6514;BME280;3290;47.716;9.070;2023-03-19T02:34:05;96747.50;;;12.12;97.03
6514;BME280;3290;47.716;9.070;2023-03-19T02:36:38;96750.38;;;11.99;97.28
6514;BME280;3290;47.716;9.070;2023-03-19T02:39:08;96746.41;;;12.20;97.46
6514;BME280;3290;47.716;9.070;2023-03-19T02:41:38;96750.97;;;12.13;95.67
6514;BME280;3290;47.716;9.070;2023-03-19T02:44:06;96754.84;;;12.22;94.98
6514;BME280;3290;47.716;9.070;2023-03-19T02:46:33;96758.81;;;12.47;93.74
6514;BME280;3290;47.716;9.070;2023-03-19T02:48:59;96753.09;;;12.61;93.28
6514;BME280;3290;47.716;9.070;2023-03-19T02:51:24;96760.19;;;12.61;92.17
6514;BME280;3290;47.716;9.070;2023-03-19T02:53:50;96763.38;;;12.63;91.18
6514;BME280;3290;47.716;9.070;2023-03-19T02:56:15;96768.28;;;12.82;89.91
6514;BME280;3290;47.716;9.070;2023-03-19T02:58:41;96768.06;;;12.72;91.61
6514;BME280;3290;47.716;9.070;2023-03-19T03:01:06;96768.72;;;12.79;91.66
6514;BME280;3290;47.716;9.070;2023-03-19T03:03:32;96766.22;;;12.61;91.36
6514;BME280;3290;47.716;9.070;2023-03-19T03:05:57;96760.53;;;12.64;89.54
6514;BME280;3290;47.716;9.070;2023-03-19T03:08:22;96770.13;;;12.81;88.45
6514;BME280;3290;47.716;9.070;2023-03-19T03:10:48;96767.84;;;12.85;90.22
6514;BME280;3290;47.716;9.070;2023-03-19T03:13:13;96771.03;;;12.64;91.45
6514;BME280;3290;47.716;9.070;2023-03-19T03:15:39;96782.00;;;12.61;91.38
6514;BME280;3290;47.716;9.070;2023-03-19T03:18:04;96776.06;;;12.54;90.24
6514;BME280;3290;47.716;9.070;2023-03-19T03:20:30;96781.88;;;12.68;90.34
6514;BME280;3290;47.716;9.070;2023-03-19T03:22:55;96781.09;;;12.67;91.74
6514;BME280;3290;47.716;9.070;2023-03-19T03:25:21;96784.63;;;12.61;89.64
6514;BME280;3290;47.716;9.070;2023-03-19T03:27:47;96786.22;;;12.51;90.65
6514;BME280;3290;47.716;9.070;2023-03-19T03:30:13;96792.06;;;12.41;91.91
6514;BME280;3290;47.716;9.070;2023-03-19T03:32:40;96799.84;;;12.59;90.59
6514;BME280;3290;47.716;9.070;2023-03-19T03:35:07;96788.53;;;12.59;87.94
6514;BME280;3290;47.716;9.070;2023-03-19T03:37:33;96793.88;;;12.75;86.58
6514;BME280;3290;47.716;9.070;2023-03-19T03:39:59;96799.13;;;12.75;88.51
6514;BME280;3290;47.716;9.070;2023-03-19T03:42:24;96803.38;;;12.76;89.38
6514;BME280;3290;47.716;9.070;2023-03-19T03:44:50;96804.19;;;12.65;90.37
6514;BME280;3290;47.716;9.070;2023-03-19T03:47:16;96803.38;;;12.65;91.08
6514;BME280;3290;47.716;9.070;2023-03-19T03:49:42;96799.94;;;12.64;90.78
6514;BME280;3290;47.716;9.070;2023-03-19T03:52:08;96808.75;;;12.58;90.40
6514;BME280;3290;47.716;9.070;2023-03-19T03:54:34;96814.72;;;12.65;89.90
6514;BME280;3290;47.716;9.070;2023-03-19T03:56:59;96812.63;;;12.67;88.36
6514;BME280;3290;47.716;9.070;2023-03-19T03:59:26;96813.09;;;12.64;89.39
6514;BME280;3290;47.716;9.070;2023-03-19T04:01:51;96819.81;;;12.72;91.07
6514;BME280;3290;47.716;9.070;2023-03-19T04:04:17;96823.28;;;12.72;90.83
6514;BME280;3290;47.716;9.070;2023-03-19T04:06:44;96827.72;;;12.60;91.75
6514;BME280;3290;47.716;9.070;2023-03-19T04:09:10;96832.06;;;12.66;91.42
6514;BME280;3290;47.716;9.070;2023-03-19T04:11:35;96832.97;;;12.60;92.23
6514;BME280;3290;47.716;9.070;2023-03-19T04:14:01;96840.31;;;12.58;91.52
6514;BME280;3290;47.716;9.070;2023-03-19T04:16:28;96835.25;;;12.68;89.54
6514;BME280;3290;47.716;9.070;2023-03-19T04:18:54;96836.31;;;12.67;84.31
6514;BME280;3290;47.716;9.070;2023-03-19T04:21:19;96844.53;;;12.82;86.51
6514;BME280;3290;47.716;9.070;2023-03-19T04:23:45;96842.00;;;12.76;88.73
6514;BME280;3290;47.716;9.070;2023-03-19T04:26:10;96833.44;;;12.57;88.52
6514;BME280;3290;47.716;9.070;2023-03-19T04:28:36;96840.28;;;12.47;90.39
6514;BME280;3290;47.716;9.070;2023-03-19T04:31:06;96843.50;;;12.60;91.54
6514;BME280;3290;47.716;9.070;2023-03-19T04:33:32;96846.25;;;12.65;90.46
6514;BME280;3290;47.716;9.070;2023-03-19T04:35:58;96846.69;;;12.62;88.67
6514;BME280;3290;47.716;9.070;2023-03-19T04:38:24;96846.94;;;12.72;87.54
6514;BME280;3290;47.716;9.070;2023-03-19T04:40:54;96844.63;;;12.64;89.70
6514;BME280;3290;47.716;9.070;2023-03-19T04:43:21;96847.81;;;12.66;86.76
6514;BME280;3290;47.716;9.070;2023-03-19T04:45:46;96852.28;;;12.66;85.14
6514;BME280;3290;47.716;9.070;2023-03-19T04:48:11;96856.63;;;12.60;87.85
6514;BME280;3290;47.716;9.070;2023-03-19T04:50:37;96851.94;;;12.62;87.01
6514;BME280;3290;47.716;9.070;2023-03-19T04:53:04;96860.81;;;12.38;87.45
6514;BME280;3290;47.716;9.070;2023-03-19T04:55:29;96864.28;;;12.50;87.78
6514;BME280;3290;47.716;9.070;2023-03-19T04:57:55;96867.66;;;12.28;89.15
6514;BME280;3290;47.716;9.070;2023-03-19T05:00:20;96868.31;;;12.01;90.29
6514;BME280;3290;47.716;9.070;2023-03-19T05:02:46;96869.53;;;11.98;91.22
6514;BME280;3290;47.716;9.070;2023-03-19T05:05:11;96870.59;;;12.09;90.25
6514;BME280;3290;47.716;9.070;2023-03-19T05:07:38;96875.75;;;11.75;93.24
6514;BME280;3290;47.716;9.070;2023-03-19T05:10:04;96886.13;;;12.10;91.83
6514;BME280;3290;47.716;9.070;2023-03-19T05:12:30;96890.59;;;12.21;92.66
6514;BME280;3290;47.716;9.070;2023-03-19T05:14:56;96890.38;;;12.23;91.77
6514;BME280;3290;47.716;9.070;2023-03-19T05:17:22;96889.56;;;12.11;93.63
6514;BME280;3290;47.716;9.070;2023-03-19T05:19:47;96884.19;;;12.06;94.04
6514;BME280;3290;47.716;9.070;2023-03-19T05:22:12;96891.59;;;12.09;90.76
6514;BME280;3290;47.716;9.070;2023-03-19T05:24:38;96885.91;;;12.12;90.74
6514;BME280;3290;47.716;9.070;2023-03-19T05:27:03;96891.59;;;12.09;90.17
6514;BME280;3290;47.716;9.070;2023-03-19T05:29:28;96888.25;;;11.91;90.25
6514;BME280;3290;47.716;9.070;2023-03-19T05:31:54;96889.22;;;11.78;91.60
6514;BME280;3290;47.716;9.070;2023-03-19T05:34:19;96886.19;;;11.63;93.83
6514;BME280;3290;47.716;9.070;2023-03-19T05:36:45;96887.78;;;11.64;95.18
6514;BME280;3290;47.716;9.070;2023-03-19T05:39:10;96890.28;;;11.59;94.75
6514;BME280;3290;47.716;9.070;2023-03-19T05:41:36;96895.38;;;11.72;93.77
6514;BME280;3290;47.716;9.070;2023-03-19T05:44:01;96894.91;;;11.75;93.22
6514;BME280;3290;47.716;9.070;2023-03-19T05:46:26;96897.63;;;11.98;90.98
6514;BME280;3290;47.716;9.070;2023-03-19T05:48:52;96886.09;;;11.99;91.33
6514;BME280;3290;47.716;9.070;2023-03-19T05:51:17;96890.81;;;11.79;91.57
6514;BME280;3290;47.716;9.070;2023-03-19T05:53:43;96894.19;;;11.68;95.22
6514;BME280;3290;47.716;9.070;2023-03-19T05:56:08;96890.28;;;11.59;95.30
6514;BME280;3290;47.716;9.070;2023-03-19T05:58:33;96897.53;;;11.75;94.00
6514;BME280;3290;47.716;9.070;2023-03-19T06:00:59;96892.00;;;11.83;93.25
6514;BME280;3290;47.716;9.070;2023-03-19T06:03:24;96907.16;;;11.81;91.19
6514;BME280;3290;47.716;9.070;2023-03-19T06:05:51;96909.53;;;11.83;90.87
6514;BME280;3290;47.716;9.070;2023-03-19T06:08:18;96914.41;;;11.97;90.33
6514;BME280;3290;47.716;9.070;2023-03-19T06:10:44;96912.25;;;12.05;90.70
6514;BME280;3290;47.716;9.070;2023-03-19T06:13:11;96915.28;;;11.91;92.35
6514;BME280;3290;47.716;9.070;2023-03-19T06:15:36;96921.72;;;11.77;94.76
6514;BME280;3290;47.716;9.070;2023-03-19T06:18:02;96919.44;;;11.69;95.14
6514;BME280;3290;47.716;9.070;2023-03-19T06:20:28;96917.59;;;11.70;95.80
6514;BME280;3290;47.716;9.070;2023-03-19T06:22:53;96917.91;;;11.62;96.55
6514;BME280;3290;47.716;9.070;2023-03-19T06:25:19;96921.69;;;11.66;96.19
6514;BME280;3290;47.716;9.070;2023-03-19T06:27:44;96927.13;;;11.82;95.54
6514;BME280;3290;47.716;9.070;2023-03-19T06:30:10;96926.06;;;12.01;95.65
6514;BME280;3290;47.716;9.070;2023-03-19T06:32:36;96935.28;;;11.92;94.56
6514;BME280;3290;47.716;9.070;2023-03-19T06:35:02;96925.22;;;11.89;95.85
6514;BME280;3290;47.716;9.070;2023-03-19T06:37:27;96929.44;;;11.90;95.13
6514;BME280;3290;47.716;9.070;2023-03-19T06:39:53;96945.53;;;12.11;95.14
6514;BME280;3290;47.716;9.070;2023-03-19T06:42:19;96939.91;;;12.08;97.00
6514;BME280;3290;47.716;9.070;2023-03-19T06:44:46;96940.91;;;12.07;97.47
6514;BME280;3290;47.716;9.070;2023-03-19T06:47:11;96940.22;;;12.00;98.87
6514;BME280;3290;47.716;9.070;2023-03-19T06:49:36;96944.50;;;11.83;99.56
6514;BME280;3290;47.716;9.070;2023-03-19T06:52:02;96937.47;;;11.77;99.40
6514;BME280;3290;47.716;9.070;2023-03-19T06:54:27;96938.06;;;11.44;100.00
6514;BME280;3290;47.716;9.070;2023-03-19T06:56:53;96940.88;;;11.49;100.00
6514;BME280;3290;47.716;9.070;2023-03-19T06:59:18;96938.50;;;11.41;100.00
6514;BME280;3290;47.716;9.070;2023-03-19T07:01:44;96933.25;;;11.41;100.00
6514;BME280;3290;47.716;9.070;2023-03-19T07:04:10;96941.84;;;11.30;100.00
6514;BME280;3290;47.716;9.070;2023-03-19T07:06:36;96934.25;;;11.46;100.00
6514;BME280;3290;47.716;9.070;2023-03-19T07:09:02;96926.97;;;11.48;100.00
6514;BME280;3290;47.716;9.070;2023-03-19T07:11:28;96932.25;;;11.42;100.00
6514;BME280;3290;47.716;9.070;2023-03-19T07:13:53;96933.44;;;11.46;100.00
6514;BME280;3290;47.716;9.070;2023-03-19T07:16:19;96936.47;;;11.43;100.00
6514;BME280;3290;47.716;9.070;2023-03-19T07:18:44;96930.66;;;11.76;100.00
6514;BME280;3290;47.716;9.070;2023-03-19T07:21:09;96930.47;;;11.89;99.69
6514;BME280;3290;47.716;9.070;2023-03-19T07:23:35;96937.00;;;11.98;98.16
6514;BME280;3290;47.716;9.070;2023-03-19T07:26:00;96934.13;;;11.88;99.84
6514;BME280;3290;47.716;9.070;2023-03-19T07:28:26;96935.50;;;11.91;98.41
6514;BME280;3290;47.716;9.070;2023-03-19T07:30:52;96943.69;;;12.12;97.08
6514;BME280;3290;47.716;9.070;2023-03-19T07:33:18;96932.31;;;12.29;96.35
6514;BME280;3290;47.716;9.070;2023-03-19T07:35:44;96941.25;;;12.39;96.37
6514;BME280;3290;47.716;9.070;2023-03-19T07:38:09;96938.84;;;12.27;98.86
6514;BME280;3290;47.716;9.070;2023-03-19T07:40:35;96942.50;;;12.37;99.44
6514;BME280;3290;47.716;9.070;2023-03-19T07:43:00;96950.22;;;12.50;97.76
6514;BME280;3290;47.716;9.070;2023-03-19T07:45:26;96942.91;;;12.63;96.07
6514;BME280;3290;47.716;9.070;2023-03-19T07:47:51;96946.22;;;12.59;97.55
6514;BME280;3290;47.716;9.070;2023-03-19T07:50:17;96944.78;;;12.74;98.30
6514;BME280;3290;47.716;9.070;2023-03-19T07:52:45;96941.03;;;12.93;97.28
6514;BME280;3290;47.716;9.070;2023-03-19T07:55:11;96938.63;;;13.03;96.77
6514;BME280;3290;47.716;9.070;2023-03-19T07:57:37;96935.75;;;12.93;96.20
6514;BME280;3290;47.716;9.070;2023-03-19T08:00:03;96939.78;;;13.07;98.26
6514;BME280;3290;47.716;9.070;2023-03-19T08:02:28;96933.38;;;13.03;98.40
6514;BME280;3290;47.716;9.070;2023-03-19T08:04:54;96937.84;;;13.25;96.73
6514;BME280;3290;47.716;9.070;2023-03-19T08:07:20;96935.91;;;13.71;94.40
6514;BME280;3290;47.716;9.070;2023-03-19T08:09:46;96933.16;;;13.77;91.80
6514;BME280;3290;47.716;9.070;2023-03-19T08:12:12;96934.50;;;13.91;91.90
6514;BME280;3290;47.716;9.070;2023-03-19T08:14:38;96932.69;;;14.19;90.11
6514;BME280;3290;47.716;9.070;2023-03-19T08:17:03;96930.28;;;14.18;88.00
6514;BME280;3290;47.716;9.070;2023-03-19T08:19:29;96928.28;;;14.52;86.98
6514;BME280;3290;47.716;9.070;2023-03-19T08:21:54;96926.09;;;14.33;85.26
6514;BME280;3290;47.716;9.070;2023-03-19T08:24:20;96935.47;;;14.57;79.02
6514;BME280;3290;47.716;9.070;2023-03-19T08:26:46;96935.31;;;15.12;76.26
6514;BME280;3290;47.716;9.070;2023-03-19T08:29:11;96936.56;;;15.42;73.83
6514;BME280;3290;47.716;9.070;2023-03-19T08:31:37;96942.59;;;15.22;69.26
6514;BME280;3290;47.716;9.070;2023-03-19T08:34:02;96938.88;;;15.39;67.94
6514;BME280;3290;47.716;9.070;2023-03-19T08:36:29;96938.94;;;16.29;66.49
6514;BME280;3290;47.716;9.070;2023-03-19T08:38:55;96931.91;;;16.65;64.66
6514;BME280;3290;47.716;9.070;2023-03-19T08:41:21;96935.22;;;16.25;60.81
6514;BME280;3290;47.716;9.070;2023-03-19T08:43:46;96931.84;;;16.55;60.93
6514;BME280;3290;47.716;9.070;2023-03-19T08:46:12;96932.06;;;16.54;58.54
6514;BME280;3290;47.716;9.070;2023-03-19T08:48:38;96933.59;;;16.02;56.17
6514;BME280;3290;47.716;9.070;2023-03-19T08:51:04;96936.44;;;16.17;57.55
6514;BME280;3290;47.716;9.070;2023-03-19T08:53:30;96937.81;;;16.20;56.96
6514;BME280;3290;47.716;9.070;2023-03-19T08:55:58;96935.53;;;16.28;56.20
6514;BME280;3290;47.716;9.070;2023-03-19T08:58:24;96944.47;;;16.06;57.48
6514;BME280;3290;47.716;9.070;2023-03-19T09:00:51;96939.31;;;16.16;57.53
6514;BME280;3290;47.716;9.070;2023-03-19T09:03:17;96937.66;;;16.31;56.82
6514;BME280;3290;47.716;9.070;2023-03-19T09:05:43;96934.06;;;16.68;56.06
6514;BME280;3290;47.716;9.070;2023-03-19T09:08:09;96930.72;;;16.83;54.24
6514;BME280;3290;47.716;9.070;2023-03-19T09:10:36;96936.41;;;16.96;54.11
6514;BME280;3290;47.716;9.070;2023-03-19T09:13:01;96941.94;;;18.37;52.92
6514;BME280;3290;47.716;9.070;2023-03-19T09:15:27;96930.63;;;19.06;47.75
6514;BME280;3290;47.716;9.070;2023-03-19T09:17:53;96937.00;;;19.05;48.39
6514;BME280;3290;47.716;9.070;2023-03-19T09:20:18;96929.22;;;18.44;50.19
6514;BME280;3290;47.716;9.070;2023-03-19T09:22:44;96936.63;;;18.37;48.28
6514;BME280;3290;47.716;9.070;2023-03-19T09:25:10;96939.34;;;18.72;48.03
6514;BME280;3290;47.716;9.070;2023-03-19T09:27:36;96940.13;;;18.52;48.18
6514;BME280;3290;47.716;9.070;2023-03-19T09:30:02;96944.94;;;17.90;49.74
6514;BME280;3290;47.716;9.070;2023-03-19T09:32:28;96941.81;;;18.07;49.50
6514;BME280;3290;47.716;9.070;2023-03-19T09:34:53;96942.31;;;17.95;50.03
6514;BME280;3290;47.716;9.070;2023-03-19T09:37:19;96938.28;;;18.63;50.17
6514;BME280;3290;47.716;9.070;2023-03-19T09:39:44;96934.84;;;18.82;47.47
6514;BME280;3290;47.716;9.070;2023-03-19T09:42:14;96927.13;;;19.50;46.29
6514;BME280;3290;47.716;9.070;2023-03-19T09:44:44;96924.97;;;19.57;49.17
6514;BME280;3290;47.716;9.070;2023-03-19T09:47:32;96929.78;;;18.81;46.51
6514;BME280;3290;47.716;9.070;2023-03-19T09:50:04;96927.91;;;19.40;47.33
6514;BME280;3290;47.716;9.070;2023-03-19T09:55:14;96921.31;;;20.10;46.22
6514;BME280;3290;47.716;9.070;2023-03-19T09:57:45;96928.09;;;19.73;44.94
6514;BME280;3290;47.716;9.070;2023-03-19T10:00:27;96906.94;;;20.64;44.06
6514;BME280;3290;47.716;9.070;2023-03-19T10:08:20;96913.56;;;19.36;45.75
6514;BME280;3290;47.716;9.070;2023-03-19T10:16:34;96903.00;;;20.04;44.61
6514;BME280;3290;47.716;9.070;2023-03-19T10:19:03;96905.06;;;20.17;44.40
6514;BME280;3290;47.716;9.070;2023-03-19T10:21:36;96896.03;;;20.13;42.97
6514;BME280;3290;47.716;9.070;2023-03-19T10:24:17;96891.59;;;20.47;42.29
6514;BME280;3290;47.716;9.070;2023-03-19T10:26:46;96897.03;;;21.03;40.82
6514;BME280;3290;47.716;9.070;2023-03-19T10:29:17;96887.84;;;21.14;39.95
6514;BME280;3290;47.716;9.070;2023-03-19T10:32:07;96889.72;;;20.85;39.60
6514;BME280;3290;47.716;9.070;2023-03-19T10:34:44;96893.56;;;21.30;41.32
6514;BME280;3290;47.716;9.070;2023-03-19T10:37:18;96881.97;;;21.91;38.88
6514;BME280;3290;47.716;9.070;2023-03-19T10:39:46;96880.91;;;22.10;39.18
6514;BME280;3290;47.716;9.070;2023-03-19T10:44:50;96877.38;;;23.20;35.42
6514;BME280;3290;47.716;9.070;2023-03-19T10:47:18;96869.00;;;22.94;35.71
6514;BME280;3290;47.716;9.070;2023-03-19T10:49:44;96875.03;;;23.32;34.80
6514;BME280;3290;47.716;9.070;2023-03-19T10:52:29;96873.63;;;23.21;36.61
6514;BME280;3290;47.716;9.070;2023-03-19T10:55:04;96870.81;;;22.08;36.81
6514;BME280;3290;47.716;9.070;2023-03-19T10:57:31;96867.00;;;21.72;38.84
6514;BME280;3290;47.716;9.070;2023-03-19T11:00:02;96872.16;;;22.28;36.17
6514;BME280;3290;47.716;9.070;2023-03-19T11:02:29;96869.91;;;22.35;37.58
6514;BME280;3290;47.716;9.070;2023-03-19T11:05:26;96862.31;;;22.79;36.37
6514;BME280;3290;47.716;9.070;2023-03-19T11:08:16;96864.41;;;21.67;38.39
6514;BME280;3290;47.716;9.070;2023-03-19T11:10:48;96867.19;;;21.01;40.81
6514;BME280;3290;47.716;9.070;2023-03-19T11:13:22;96875.81;;;20.93;38.82
6514;BME280;3290;47.716;9.070;2023-03-19T11:15:48;96863.75;;;21.75;37.71
6514;BME280;3290;47.716;9.070;2023-03-19T11:18:23;96861.38;;;22.70;37.78
6514;BME280;3290;47.716;9.070;2023-03-19T11:20:59;96866.81;;;22.65;36.87
6514;BME280;3290;47.716;9.070;2023-03-19T11:23:31;96856.50;;;22.40;37.65
6514;BME280;3290;47.716;9.070;2023-03-19T11:26:02;96859.13;;;22.77;37.01
6514;BME280;3290;47.716;9.070;2023-03-19T11:28:27;96859.22;;;22.53;35.78
6514;BME280;3290;47.716;9.070;2023-03-19T11:39:24;96856.22;;;23.50;35.92
6514;BME280;3290;47.716;9.070;2023-03-19T11:45:06;96844.63;;;23.28;35.36
6514;BME280;3290;47.716;9.070;2023-03-19T11:50:25;96836.31;;;22.66;37.48
6514;BME280;3290;47.716;9.070;2023-03-19T11:58:34;96829.75;;;22.77;36.95
6514;BME280;3290;47.716;9.070;2023-03-19T12:01:55;96824.84;;;21.74;37.84
6514;BME280;3290;47.716;9.070;2023-03-19T12:07:06;96821.72;;;22.45;36.93
6514;BME280;3290;47.716;9.070;2023-03-19T12:09:48;96820.31;;;22.48;36.65
6514;BME280;3290;47.716;9.070;2023-03-19T12:14:47;96808.22;;;22.68;35.58
6514;BME280;3290;47.716;9.070;2023-03-19T12:17:42;96803.09;;;22.40;36.46
6514;BME280;3290;47.716;9.070;2023-03-19T12:20:19;96799.97;;;22.51;37.61
6514;BME280;3290;47.716;9.070;2023-03-19T12:33:40;96806.00;;;19.87;40.26
6514;BME280;3290;47.716;9.070;2023-03-19T12:36:12;96809.56;;;19.63;40.95
6514;BME280;3290;47.716;9.070;2023-03-19T12:39:21;96808.72;;;19.09;42.13
6514;BME280;3290;47.716;9.070;2023-03-19T12:41:45;96806.31;;;19.08;42.52
6514;BME280;3290;47.716;9.070;2023-03-19T12:55:01;96806.63;;;18.72;43.62
6514;BME280;3290;47.716;9.070;2023-03-19T12:57:35;96805.72;;;19.30;43.43
6514;BME280;3290;47.716;9.070;2023-03-19T13:00:33;96808.19;;;18.92;43.22
6514;BME280;3290;47.716;9.070;2023-03-19T13:03:08;96799.38;;;19.17;44.60
6514;BME280;3290;47.716;9.070;2023-03-19T13:05:38;96799.66;;;19.05;43.81
6514;BME280;3290;47.716;9.070;2023-03-19T13:08:22;96796.41;;;19.28;43.87
6514;BME280;3290;47.716;9.070;2023-03-19T13:10:52;96793.81;;;19.76;43.56
6514;BME280;3290;47.716;9.070;2023-03-19T13:15:48;96787.97;;;19.74;41.89
6514;BME280;3290;47.716;9.070;2023-03-19T13:21:13;96786.06;;;20.27;41.13
6514;BME280;3290;47.716;9.070;2023-03-19T13:23:42;96784.19;;;19.90;42.03
6514;BME280;3290;47.716;9.070;2023-03-19T13:26:10;96782.38;;;20.23;40.89
6514;BME280;3290;47.716;9.070;2023-03-19T13:28:58;96788.66;;;20.70;40.26
6514;BME280;3290;47.716;9.070;2023-03-19T13:31:26;96791.53;;;19.55;41.69
6514;BME280;3290;47.716;9.070;2023-03-19T13:34:02;96790.81;;;19.34;43.89
6514;BME280;3290;47.716;9.070;2023-03-19T13:36:30;96791.25;;;18.59;46.19
6514;BME280;3290;47.716;9.070;2023-03-19T13:38:58;96795.22;;;18.81;45.60
6514;BME280;3290;47.716;9.070;2023-03-19T13:46:46;96794.44;;;18.71;44.41
6514;BME280;3290;47.716;9.070;2023-03-19T13:49:21;96782.41;;;19.13;44.77
6514;BME280;3290;47.716;9.070;2023-03-19T13:51:50;96787.47;;;18.84;44.20
6514;BME280;3290;47.716;9.070;2023-03-19T13:54:18;96783.25;;;18.84;44.77
6514;BME280;3290;47.716;9.070;2023-03-19T14:01:56;96770.59;;;19.38;42.38
6514;BME280;3290;47.716;9.070;2023-03-19T14:15:13;96770.84;;;19.47;42.17
6514;BME280;3290;47.716;9.070;2023-03-19T14:25:24;96761.81;;;19.43;41.82
6514;BME280;3290;47.716;9.070;2023-03-19T14:27:57;96761.00;;;20.00;41.56
6514;BME280;3290;47.716;9.070;2023-03-19T14:30:34;96763.00;;;19.70;43.93
6514;BME280;3290;47.716;9.070;2023-03-19T14:33:04;96772.56;;;19.18;44.85
6514;BME280;3290;47.716;9.070;2023-03-19T14:35:35;96770.22;;;18.97;44.86
6514;BME280;3290;47.716;9.070;2023-03-19T14:38:10;96766.53;;;18.78;44.46
6514;BME280;3290;47.716;9.070;2023-03-19T14:40:43;96767.91;;;18.21;47.40
6514;BME280;3290;47.716;9.070;2023-03-19T14:43:16;96769.50;;;18.42;48.17
6514;BME280;3290;47.716;9.070;2023-03-19T14:46:00;96768.97;;;18.15;49.14
6514;BME280;3290;47.716;9.070;2023-03-19T14:53:47;96775.94;;;17.36;49.67
6514;BME280;3290;47.716;9.070;2023-03-19T14:56:26;96770.38;;;17.37;50.17
6514;BME280;3290;47.716;9.070;2023-03-19T14:58:56;96777.94;;;17.14;50.83
6514;BME280;3290;47.716;9.070;2023-03-19T15:01:23;96770.19;;;16.98;51.18
6514;BME280;3290;47.716;9.070;2023-03-19T15:04:04;96771.75;;;16.94;51.90
6514;BME280;3290;47.716;9.070;2023-03-19T15:06:40;96775.19;;;16.94;53.02
6514;BME280;3290;47.716;9.070;2023-03-19T15:09:20;96781.25;;;16.90;55.21
6514;BME280;3290;47.716;9.070;2023-03-19T15:11:56;96776.13;;;16.38;56.09
6514;BME280;3290;47.716;9.070;2023-03-19T15:19:48;96783.88;;;16.18;56.62